ロサンゼルス国際空港の過去48時間の天気

ロサンゼルス国際空港 (Los Angeles, Los Angeles International Airport)

現在時刻: 3/6 06:27 PST (3/6 14:27 UTC) 以下の時間は現地時間です。

過去48時間のMETAR気象情報
時間 風向 風速(m/s) 視程 気温(℃) 湿度(%) 気圧(hPa) 天気現象
6 05:53 北東 3 10km以上 10 93 1017.1
6 04:53 2 10km以上 11.1 89 1017
6 03:53 3 10km以上 9.4 93 1016.3
6 02:53 南西 2 10km以上 10.6 89 1016.8
6 01:53 不定 2 10km以上 11.7 86 1016.9
6 00:53 静穏 0 10km以上 12.2 86 1016.6
5 23:53 南西 4 10km以上 12.2 86 1017
5 22:53 西南西 3 10km以上 12.2 86 1016.8
5 21:53 南西 2 10km以上 12.2 86 1016.7
5 20:53 西南西 4 10km以上 13.3 77 1016.4
5 19:53 西 5 10km以上 14.4 70 1016.1
5 18:53 西 5 10km以上 15 64 1016.1
5 17:53 西 5 10km以上 14.4 72 1016.3
5 16:53 西 9 10km以上 16.1 58 1016.6
5 15:53 西 9 10km以上 17.2 50 1016.8
5 14:53 西 9 10km以上 18.3 50 1017.7
5 13:53 西 7 10km以上 18.9 43 1018
5 12:53 西 7 10km以上 17.8 58 1019
5 11:53 西 5 10km以上 19.4 49 1019.8
5 10:53 西南西 2 10km以上 21.7 30 1020.3
5 09:53 西北西 2 10km以上 19.4 33 1020.9
5 08:53 静穏 0 10km以上 16.1 50 1021.5
5 07:53 静穏 0 10km以上 13.3 64 1021.7
5 06:53 静穏 0 10km以上 10 80 1021.5
5 05:53 静穏 0 10km以上 9.4 80 1021.2
5 05:48 静穏 0 10km以上 9 81 1021
5 04:53 静穏 0 10km以上 10.6 83 1021.4
5 03:53 静穏 0 10km以上 10 86 1021.4
5 02:53 西北西 2 10km以上 11.7 77 1021.9
5 01:53 静穏 0 10km以上 11.1 80 1022.3
5 00:53 東南東 2 10km以上 10.6 89 1022.6
4 23:53 2 10km以上 10.6 89 1022.9
4 22:53 不定 2 10km以上 12.8 80 1023.6
4 21:53 西 2 10km以上 12.2 80 1024
4 20:53 西北西 4 10km以上 13.3 77 1024.2
4 19:53 西 5 10km以上 12.8 80 1024.3
4 18:53 西 5 10km以上 13.3 77 1023.9
4 17:53 西 7 10km以上 13.3 72 1024.1
4 16:53 西 6 10km以上 14.4 67 1024.1
4 15:53 西 5 10km以上 15.6 57 1024
4 14:53 西 6 10km以上 16.1 52 1024.1
4 13:53 西 4 10km以上 16.1 50 1024.1
4 12:53 西 6 10km以上 16.1 52 1024.8
4 11:53 西南西 7 10km以上 16.7 52 1024.9
4 10:53 不定 2 10km以上 16.7 50 1024.6
4 09:53 3 10km以上 15 55 1024.5
4 08:53 東北東 3 10km以上 13.3 60 1024.5
4 07:53 不定 2 10km以上 11.1 66 1023.9
4 06:53 不定 2 10km以上 9.4 71 1023
KLAX 061353Z 04005KT 10SM SCT012 10/09 A3004 RMK AO2 SLP171 T01000089 $
KLAX 061253Z 19004KT 10SM FEW010 11/09 A3004 RMK AO2 SLP170 T01110094 $
KLAX 061153Z 10005KT 8SM FEW007 FEW200 09/08 A3002 RMK AO2 SLP163 T00940083 10128 20094 58003 $
KLAX 061053Z 23003KT 9SM CLR 11/09 A3003 RMK AO2 SLP168 T01060089 $
KLAX 060953Z VRB03KT 10SM CLR 12/09 A3004 RMK AO2 SLP169 T01170094 $
KLAX 060853Z 00000KT 10SM CLR 12/10 A3003 RMK AO2 SLP166 T01220100 58002 $
KLAX 060753Z 23007KT 10SM CLR 12/10 A3004 RMK AO2 SLP170 T01220100 402220089 $
KLAX 060653Z 24005KT 10SM FEW200 12/10 A3004 RMK AO2 SLP168 T01220100 $
KLAX 060553Z 23004KT 10SM FEW200 12/10 A3003 RMK AO2 SLP167 T01220100 10172 20122 53007 $
KLAX 060453Z 25008KT 10SM FEW200 13/09 A3002 RMK AO2 SLP164 T01330094 $
KLAX 060353Z 26009KT 10SM FEW250 14/09 A3001 RMK AO2 SLP161 T01440089 $
KLAX 060253Z 28010KT 10SM FEW250 15/08 A3001 RMK AO2 SLP161 T01500083 56007 $
KLAX 060153Z 26010KT 10SM FEW250 FEW300 14/09 A3001 RMK AO2 SLP163 T01440094 $
KLAX 060053Z 26018KT 10SM FEW300 16/08 A3002 RMK AO2 SLP166 T01610078 $
KLAX 052353Z 27018KT 10SM FEW300 17/07 A3003 RMK AO2 SLP168 T01720067 10222 20172 56021 $
KLAX 052253Z 26017KT 10SM FEW230 FEW280 18/08 A3005 RMK AO2 SLP177 T01830078 $
KLAX 052153Z 27014KT 10SM FEW230 FEW280 19/06 A3006 RMK AO2 SLP180 T01890061 $
KLAX 052053Z 27013KT 10SM SCT180 SCT250 18/09 A3009 RMK AO2 SLP190 T01780094 58020 $
KLAX 051953Z 26010KT 10SM FEW180 FEW250 19/08 A3011 RMK AO2 SLP198 T01940083 $
KLAX 051853Z 25004KT 10SM FEW180 FEW250 22/03 A3013 RMK AO2 SLP203 T02170033 $
KLAX 051753Z 30004KT 10SM FEW180 19/03 A3015 RMK AO2 SLP209 T01940028 10200 20089 58004 $
KLAX 051653Z 00000KT 10SM FEW017 FEW180 16/06 A3017 RMK AO2 SLP215 T01610056 $
KLAX 051553Z 00000KT 10SM FEW014 FEW250 13/07 A3017 RMK AO2 SLP217 T01330067 $
KLAX 051453Z 00000KT 10SM FEW012 FEW250 10/07 A3017 RMK AO2 SLP215 T01000067 55000 $
KLAX 051353Z 00000KT 10SM FEW001 FEW250 09/06 A3016 RMK AO2 SLP212 T00940061 $
KLAX 051348Z 00000KT 10SM FEW001 FEW250 09/06 A3016 RMK AO2 $
KLAX 051253Z 00000KT 10SM CLR 11/08 A3017 RMK AO2 SLP214 T01060078 $
KLAX 051153Z 00000KT 10SM FEW012 10/08 A3017 RMK AO2 SLP214 T01000078 10133 20100 58012 $
KLAX 051053Z 29004KT 10SM FEW012 12/08 A3018 RMK AO2 SLP219 T01170078 $
KLAX 050953Z 00000KT 10SM FEW012 11/08 A3020 RMK AO2 SLP223 T01110078 $
KLAX 050853Z 11003KT 10SM FEW012 11/09 A3021 RMK AO2 SLP226 T01060089 56014 $
KLAX 050753Z 09003KT 10SM FEW012 11/09 A3021 RMK AO2 SLP229 T01060089 401720067 $
KLAX 050653Z VRB03KT 10SM CLR 13/09 A3023 RMK AO2 SLP236 T01280094 $
KLAX 050553Z 27003KT 10SM CLR 12/09 A3025 RMK AO2 SLP240 T01220089 10156 20122 50003 $
KLAX 050453Z 29008KT 10SM CLR 13/09 A3025 RMK AO2 SLP242 T01330094 $
KLAX 050353Z 26010KT 10SM CLR 13/09 A3025 RMK AO2 SLP243 T01280094 $
KLAX 050253Z 26010KT 10SM CLR 13/09 A3024 RMK AO2 SLP239 T01330094 58002 $
KLAX 050153Z 26014KT 10SM FEW250 13/08 A3024 RMK AO2 SLP241 T01330083 $
KLAX 050053Z 27012KT 10SM FEW250 14/08 A3024 RMK AO2 SLP241 T01440083 $
KLAX 042353Z 27010KT 10SM FEW250 16/07 A3024 RMK AO2 SLP240 T01560072 10172 20150 56008 $
KLAX 042253Z 26011KT 10SM FEW250 16/06 A3024 RMK AO2 SLP241 T01610061 $
KLAX 042153Z 27008KT 240V300 10SM CLR 16/06 A3024 RMK AO2 SLP241 T01610056 $
KLAX 042053Z 27012KT 10SM FEW016 16/06 A3026 RMK AO2 SLP248 T01610061 50003 $
KLAX 041953Z 25013KT 10SM FEW014 17/07 A3027 RMK AO2 SLP249 T01670067 $
KLAX 041853Z VRB03KT 10SM FEW012 17/06 A3026 RMK AO2 SLP246 T01670061 $
KLAX 041753Z 10005KT 10SM FEW014 15/06 A3026 RMK AO2 SLP245 T01500061 10150 20067 51017 $
KLAX 041653Z 07005KT 10SM FEW018 13/06 A3026 RMK AO2 SLP245 T01330056 $
KLAX 041553Z VRB04KT 10SM FEW011 11/05 A3024 RMK AO2 SLP239 T01110050 $
KLAX 041453Z VRB04KT 10SM CLR 09/04 A3021 RMK AO2 SLP230 T00940044 53018 $